Startpagina
METAR-TAF:

METAR-TAF

Vliegvelden :

Lucius D. Clay Kaserne

Wiesbaden, Duitsland

breedte: 50-03N, lengte: 008-20E, hoogte: 140 m

Actueel weer

Dit bericht is 46 minuten geleden gemaakt, om 12:56 UTC
Wind 4 kt uit het oosten
Temperatuur 21°C
Vochtigheid 35%
Druk 1023 hPa
Zicht 10 km of meer
Onbewolkt

METAR: ETOU 101256Z AUTO 09004KT 9999 CLR 21/05 A3022 RMK AO2 SLP233 T02140049

Tijdstip: 15:42 (13:42 UTC)

Verwachting

Dit bericht is 32 minuten geleden gemaakt, om 13:10 UTC
Verwachting geldig van 10 om 13 UTC tot 11 om 18 UTC
Wind 9 kt uit het noordoosten
Zicht: 1404 m
Verspreide wolken op 5000 ft

TAF: ETOU 101310Z 1013/1118 05009KT 9999 SCT050 QNH3018INS TX23/1015Z TN10/1105Z LAST NO AMNDS NEXT 1404

Waarnemingen en weersverwachtingen van meer dan 4000 vliegvelden (METAR en TAF).

De beschikbare stations zijn de gele en rode punten op de kaart.

Ga met uw muis naar het station om de naam te zien.

Klik dan om waarnemingen en weersverwachtingen te zien.

kaart wijzigen: klik op de groene knoppen met een zwart kruis om in te zoomen, op de groene knop met een streepje om uit te zoomen of op de groene pijlen voor aangrenzende kaarten.


METAR-TAF: